sensor_id;sensor_type;location;lat;lon;timestamp;P1;durP1;ratioP1;P2;durP2;ratioP2
15673;SDS011;7937;48.090;16.212;2023-04-24T00:00:54;7.30;;;5.03;;
15673;SDS011;7937;48.090;16.212;2023-04-24T00:03:58;6.03;;;4.73;;
15673;SDS011;7937;48.090;16.212;2023-04-24T00:07:01;8.53;;;4.30;;
15673;SDS011;7937;48.090;16.212;2023-04-24T00:10:04;5.90;;;5.07;;
15673;SDS011;7937;48.090;16.212;2023-04-24T00:13:07;5.67;;;5.07;;
15673;SDS011;7937;48.090;16.212;2023-04-24T00:16:09;4.63;;;4.20;;
15673;SDS011;7937;48.090;16.212;2023-04-24T00:19:11;4.97;;;4.47;;
15673;SDS011;7937;48.090;16.212;2023-04-24T00:22:14;7.70;;;4.60;;
15673;SDS011;7937;48.090;16.212;2023-04-24T00:25:16;5.63;;;5.07;;
15673;SDS011;7937;48.090;16.212;2023-04-24T00:28:18;7.13;;;5.30;;
15673;SDS011;7937;48.090;16.212;2023-04-24T00:31:21;6.50;;;4.60;;
15673;SDS011;7937;48.090;16.212;2023-04-24T00:34:23;6.20;;;5.13;;
15673;SDS011;7937;48.090;16.212;2023-04-24T00:37:25;5.83;;;4.80;;
15673;SDS011;7937;48.090;16.212;2023-04-24T00:40:27;5.00;;;4.50;;
15673;SDS011;7937;48.090;16.212;2023-04-24T00:43:30;6.77;;;4.80;;
15673;SDS011;7937;48.090;16.212;2023-04-24T00:46:32;8.67;;;4.40;;
15673;SDS011;7937;48.090;16.212;2023-04-24T00:49:34;6.73;;;4.80;;
15673;SDS011;7937;48.090;16.212;2023-04-24T00:52:36;7.73;;;4.83;;
15673;SDS011;7937;48.090;16.212;2023-04-24T00:55:38;6.40;;;4.90;;
15673;SDS011;7937;48.090;16.212;2023-04-24T00:58:41;7.23;;;4.40;;
15673;SDS011;7937;48.090;16.212;2023-04-24T01:05:06;5.60;;;4.77;;
15673;SDS011;7937;48.090;16.212;2023-04-24T01:08:09;10.53;;;5.00;;
15673;SDS011;7937;48.090;16.212;2023-04-24T01:11:13;6.30;;;4.83;;
15673;SDS011;7937;48.090;16.212;2023-04-24T01:14:16;6.37;;;5.67;;
15673;SDS011;7937;48.090;16.212;2023-04-24T01:17:18;6.03;;;5.43;;
15673;SDS011;7937;48.090;16.212;2023-04-24T01:20:21;6.40;;;4.60;;
15673;SDS011;7937;48.090;16.212;2023-04-24T01:23:26;9.20;;;5.07;;
15673;SDS011;7937;48.090;16.212;2023-04-24T01:26:28;8.10;;;5.70;;
15673;SDS011;7937;48.090;16.212;2023-04-24T01:29:30;5.83;;;4.90;;
15673;SDS011;7937;48.090;16.212;2023-04-24T01:32:33;5.93;;;5.27;;
15673;SDS011;7937;48.090;16.212;2023-04-24T01:35:37;6.83;;;5.53;;
15673;SDS011;7937;48.090;16.212;2023-04-24T01:38:40;7.93;;;5.10;;
15673;SDS011;7937;48.090;16.212;2023-04-24T01:41:42;6.40;;;5.70;;
15673;SDS011;7937;48.090;16.212;2023-04-24T01:44:45;7.67;;;5.40;;
15673;SDS011;7937;48.090;16.212;2023-04-24T01:47:48;6.90;;;5.27;;
15673;SDS011;7937;48.090;16.212;2023-04-24T01:50:51;6.27;;;5.47;;
15673;SDS011;7937;48.090;16.212;2023-04-24T01:53:54;7.40;;;5.23;;
15673;SDS011;7937;48.090;16.212;2023-04-24T01:56:57;9.03;;;5.67;;
15673;SDS011;7937;48.090;16.212;2023-04-24T01:59:59;8.57;;;5.70;;
15673;SDS011;7937;48.090;16.212;2023-04-24T02:03:02;7.10;;;5.03;;
15673;SDS011;7937;48.090;16.212;2023-04-24T02:06:05;8.20;;;5.30;;
15673;SDS011;7937;48.090;16.212;2023-04-24T02:09:07;5.93;;;5.33;;
15673;SDS011;7937;48.090;16.212;2023-04-24T02:12:09;6.63;;;5.30;;
15673;SDS011;7937;48.090;16.212;2023-04-24T02:15:11;6.17;;;5.57;;
15673;SDS011;7937;48.090;16.212;2023-04-24T02:18:14;7.00;;;5.60;;
15673;SDS011;7937;48.090;16.212;2023-04-24T02:21:17;7.73;;;5.03;;
15673;SDS011;7937;48.090;16.212;2023-04-24T02:24:19;7.03;;;5.80;;
15673;SDS011;7937;48.090;16.212;2023-04-24T02:27:21;5.50;;;4.93;;
15673;SDS011;7937;48.090;16.212;2023-04-24T02:30:23;5.67;;;5.07;;
15673;SDS011;7937;48.090;16.212;2023-04-24T02:33:26;5.07;;;4.57;;
15673;SDS011;7937;48.090;16.212;2023-04-24T02:36:29;5.50;;;4.90;;
15673;SDS011;7937;48.090;16.212;2023-04-24T02:39:31;5.30;;;4.23;;
15673;SDS011;7937;48.090;16.212;2023-04-24T02:42:34;4.87;;;3.70;;
15673;SDS011;7937;48.090;16.212;2023-04-24T02:45:36;5.27;;;4.03;;
15673;SDS011;7937;48.090;16.212;2023-04-24T02:48:40;7.47;;;4.50;;
15673;SDS011;7937;48.090;16.212;2023-04-24T02:51:42;4.23;;;3.83;;
15673;SDS011;7937;48.090;16.212;2023-04-24T02:54:44;5.53;;;4.50;;
15673;SDS011;7937;48.090;16.212;2023-04-24T02:57:46;3.97;;;3.50;;
15673;SDS011;7937;48.090;16.212;2023-04-24T03:00:48;4.17;;;3.53;;
15673;SDS011;7937;48.090;16.212;2023-04-24T03:03:54;4.47;;;3.93;;
15673;SDS011;7937;48.090;16.212;2023-04-24T03:06:57;4.83;;;3.80;;
15673;SDS011;7937;48.090;16.212;2023-04-24T03:10:01;3.50;;;3.20;;
15673;SDS011;7937;48.090;16.212;2023-04-24T03:13:03;3.80;;;3.40;;
15673;SDS011;7937;48.090;16.212;2023-04-24T03:16:05;4.53;;;3.77;;
15673;SDS011;7937;48.090;16.212;2023-04-24T03:19:07;3.30;;;3.00;;
15673;SDS011;7937;48.090;16.212;2023-04-24T03:22:17;4.07;;;3.20;;
15673;SDS011;7937;48.090;16.212;2023-04-24T03:25:20;3.70;;;3.37;;
15673;SDS011;7937;48.090;16.212;2023-04-24T03:28:22;3.37;;;2.97;;
15673;SDS011;7937;48.090;16.212;2023-04-24T03:31:31;2.60;;;2.40;;
15673;SDS011;7937;48.090;16.212;2023-04-24T03:34:33;4.17;;;2.67;;
15673;SDS011;7937;48.090;16.212;2023-04-24T03:37:35;2.40;;;2.20;;
15673;SDS011;7937;48.090;16.212;2023-04-24T03:40:58;3.50;;;3.10;;
15673;SDS011;7937;48.090;16.212;2023-04-24T03:44:17;3.03;;;2.70;;
15673;SDS011;7937;48.090;16.212;2023-04-24T03:47:19;3.87;;;3.27;;
15673;SDS011;7937;48.090;16.212;2023-04-24T03:50:23;3.00;;;2.80;;
15673;SDS011;7937;48.090;16.212;2023-04-24T03:53:25;3.50;;;2.90;;
15673;SDS011;7937;48.090;16.212;2023-04-24T03:56:29;3.10;;;2.50;;
15673;SDS011;7937;48.090;16.212;2023-04-24T03:59:31;4.13;;;2.77;;
15673;SDS011;7937;48.090;16.212;2023-04-24T04:02:48;5.03;;;3.07;;
15673;SDS011;7937;48.090;16.212;2023-04-24T04:05:50;5.30;;;3.03;;
15673;SDS011;7937;48.090;16.212;2023-04-24T04:08:53;4.20;;;2.77;;
15673;SDS011;7937;48.090;16.212;2023-04-24T04:11:55;2.97;;;2.67;;
15673;SDS011;7937;48.090;16.212;2023-04-24T04:14:57;2.93;;;2.53;;
15673;SDS011;7937;48.090;16.212;2023-04-24T04:18:00;2.73;;;2.47;;
15673;SDS011;7937;48.090;16.212;2023-04-24T04:21:03;4.43;;;3.07;;
15673;SDS011;7937;48.090;16.212;2023-04-24T04:24:06;3.33;;;3.03;;
15673;SDS011;7937;48.090;16.212;2023-04-24T04:27:12;3.40;;;3.03;;
15673;SDS011;7937;48.090;16.212;2023-04-24T04:30:22;3.57;;;3.10;;
15673;SDS011;7937;48.090;16.212;2023-04-24T04:33:32;5.13;;;3.90;;
15673;SDS011;7937;48.090;16.212;2023-04-24T04:36:35;3.43;;;3.13;;
15673;SDS011;7937;48.090;16.212;2023-04-24T04:39:56;4.43;;;3.23;;
15673;SDS011;7937;48.090;16.212;2023-04-24T04:43:08;3.00;;;2.80;;
15673;SDS011;7937;48.090;16.212;2023-04-24T04:46:16;3.73;;;2.60;;
15673;SDS011;7937;48.090;16.212;2023-04-24T04:49:45;6.77;;;3.27;;
15673;SDS011;7937;48.090;16.212;2023-04-24T04:52:55;4.30;;;3.90;;
15673;SDS011;7937;48.090;16.212;2023-04-24T04:56:04;3.23;;;2.87;;
15673;SDS011;7937;48.090;16.212;2023-04-24T04:59:14;4.60;;;4.03;;
15673;SDS011;7937;48.090;16.212;2023-04-24T05:02:16;5.13;;;3.50;;
15673;SDS011;7937;48.090;16.212;2023-04-24T05:05:18;3.47;;;3.17;;
15673;SDS011;7937;48.090;16.212;2023-04-24T05:08:20;3.83;;;3.30;;
15673;SDS011;7937;48.090;16.212;2023-04-24T05:11:25;4.33;;;3.60;;
15673;SDS011;7937;48.090;16.212;2023-04-24T05:14:30;5.13;;;3.07;;
15673;SDS011;7937;48.090;16.212;2023-04-24T05:17:32;4.03;;;3.63;;
15673;SDS011;7937;48.090;16.212;2023-04-24T05:20:35;4.10;;;3.00;;
15673;SDS011;7937;48.090;16.212;2023-04-24T05:23:38;3.60;;;3.30;;
15673;SDS011;7937;48.090;16.212;2023-04-24T05:26:40;3.00;;;2.80;;
15673;SDS011;7937;48.090;16.212;2023-04-24T05:29:43;3.37;;;3.07;;
15673;SDS011;7937;48.090;16.212;2023-04-24T05:32:47;3.60;;;3.30;;
15673;SDS011;7937;48.090;16.212;2023-04-24T05:35:49;3.67;;;3.37;;
15673;SDS011;7937;48.090;16.212;2023-04-24T05:38:52;4.00;;;2.93;;
15673;SDS011;7937;48.090;16.212;2023-04-24T05:41:54;3.10;;;2.80;;
15673;SDS011;7937;48.090;16.212;2023-04-24T05:44:59;5.03;;;2.80;;
15673;SDS011;7937;48.090;16.212;2023-04-24T05:48:03;2.50;;;2.30;;
15673;SDS011;7937;48.090;16.212;2023-04-24T05:51:06;2.40;;;2.20;;
15673;SDS011;7937;48.090;16.212;2023-04-24T05:54:09;3.93;;;2.37;;
15673;SDS011;7937;48.090;16.212;2023-04-24T05:57:13;2.27;;;1.90;;
15673;SDS011;7937;48.090;16.212;2023-04-24T06:00:28;2.10;;;1.70;;
15673;SDS011;7937;48.090;16.212;2023-04-24T06:03:38;2.57;;;1.47;;
15673;SDS011;7937;48.090;16.212;2023-04-24T06:06:41;1.93;;;1.63;;
15673;SDS011;7937;48.090;16.212;2023-04-24T06:09:44;1.23;;;1.13;;
15673;SDS011;7937;48.090;16.212;2023-04-24T06:12:47;1.50;;;1.40;;
15673;SDS011;7937;48.090;16.212;2023-04-24T06:15:51;1.40;;;1.30;;
15673;SDS011;7937;48.090;16.212;2023-04-24T06:19:08;2.07;;;1.70;;
15673;SDS011;7937;48.090;16.212;2023-04-24T06:22:10;1.30;;;1.20;;
15673;SDS011;7937;48.090;16.212;2023-04-24T06:25:12;1.57;;;1.20;;
15673;SDS011;7937;48.090;16.212;2023-04-24T06:28:14;1.03;;;1.03;;
15673;SDS011;7937;48.090;16.212;2023-04-24T06:31:16;1.03;;;0.97;;
15673;SDS011;7937;48.090;16.212;2023-04-24T06:34:18;1.10;;;0.80;;
15673;SDS011;7937;48.090;16.212;2023-04-24T06:37:20;1.00;;;1.00;;
15673;SDS011;7937;48.090;16.212;2023-04-24T06:40:22;1.27;;;0.90;;
15673;SDS011;7937;48.090;16.212;2023-04-24T06:43:25;1.13;;;1.03;;
15673;SDS011;7937;48.090;16.212;2023-04-24T06:46:27;1.17;;;0.97;;
15673;SDS011;7937;48.090;16.212;2023-04-24T06:49:29;0.90;;;0.90;;
15673;SDS011;7937;48.090;16.212;2023-04-24T06:52:31;0.90;;;0.90;;
15673;SDS011;7937;48.090;16.212;2023-04-24T06:55:35;0.70;;;0.70;;
15673;SDS011;7937;48.090;16.212;2023-04-24T06:58:37;1.97;;;0.77;;
15673;SDS011;7937;48.090;16.212;2023-04-24T07:01:39;0.60;;;0.60;;
15673;SDS011;7937;48.090;16.212;2023-04-24T07:04:42;0.70;;;0.63;;
15673;SDS011;7937;48.090;16.212;2023-04-24T07:07:44;0.60;;;0.60;;
15673;SDS011;7937;48.090;16.212;2023-04-24T07:10:48;1.10;;;0.80;;
15673;SDS011;7937;48.090;16.212;2023-04-24T07:13:51;0.83;;;0.73;;
15673;SDS011;7937;48.090;16.212;2023-04-24T07:16:53;1.23;;;0.70;;
15673;SDS011;7937;48.090;16.212;2023-04-24T07:19:55;1.57;;;0.70;;
15673;SDS011;7937;48.090;16.212;2023-04-24T07:22:57;1.50;;;0.80;;
15673;SDS011;7937;48.090;16.212;2023-04-24T07:25:59;0.77;;;0.70;;
15673;SDS011;7937;48.090;16.212;2023-04-24T07:29:03;1.00;;;0.70;;
15673;SDS011;7937;48.090;16.212;2023-04-24T07:32:05;1.07;;;0.70;;
15673;SDS011;7937;48.090;16.212;2023-04-24T07:35:07;1.23;;;0.90;;
15673;SDS011;7937;48.090;16.212;2023-04-24T07:38:11;1.40;;;0.73;;
15673;SDS011;7937;48.090;16.212;2023-04-24T07:41:13;1.30;;;0.90;;
15673;SDS011;7937;48.090;16.212;2023-04-24T07:44:15;0.87;;;0.70;;
15673;SDS011;7937;48.090;16.212;2023-04-24T07:47:17;0.70;;;0.70;;
15673;SDS011;7937;48.090;16.212;2023-04-24T07:50:19;2.57;;;1.10;;
15673;SDS011;7937;48.090;16.212;2023-04-24T07:53:22;0.70;;;0.70;;
15673;SDS011;7937;48.090;16.212;2023-04-24T07:56:24;1.37;;;0.73;;
15673;SDS011;7937;48.090;16.212;2023-04-24T07:59:28;0.63;;;0.63;;
15673;SDS011;7937;48.090;16.212;2023-04-24T08:02:30;1.90;;;0.80;;
15673;SDS011;7937;48.090;16.212;2023-04-24T08:05:33;1.17;;;1.00;;
15673;SDS011;7937;48.090;16.212;2023-04-24T08:08:35;0.90;;;0.90;;
15673;SDS011;7937;48.090;16.212;2023-04-24T08:11:37;1.27;;;0.70;;
15673;SDS011;7937;48.090;16.212;2023-04-24T08:14:39;1.60;;;1.00;;
15673;SDS011;7937;48.090;16.212;2023-04-24T08:17:42;1.23;;;1.03;;
15673;SDS011;7937;48.090;16.212;2023-04-24T08:20:44;2.13;;;0.90;;
15673;SDS011;7937;48.090;16.212;2023-04-24T08:23:47;0.90;;;0.80;;
15673;SDS011;7937;48.090;16.212;2023-04-24T08:26:49;0.80;;;0.73;;
15673;SDS011;7937;48.090;16.212;2023-04-24T08:29:56;0.70;;;0.70;;
15673;SDS011;7937;48.090;16.212;2023-04-24T08:33:00;0.80;;;0.80;;
15673;SDS011;7937;48.090;16.212;2023-04-24T08:36:03;0.77;;;0.77;;
15673;SDS011;7937;48.090;16.212;2023-04-24T08:39:06;0.80;;;0.67;;
15673;SDS011;7937;48.090;16.212;2023-04-24T08:42:09;0.83;;;0.63;;
15673;SDS011;7937;48.090;16.212;2023-04-24T08:45:13;0.50;;;0.50;;
15673;SDS011;7937;48.090;16.212;2023-04-24T08:48:15;0.40;;;0.40;;
15673;SDS011;7937;48.090;16.212;2023-04-24T08:51:31;0.40;;;0.40;;
15673;SDS011;7937;48.090;16.212;2023-04-24T08:54:34;0.93;;;0.43;;
15673;SDS011;7937;48.090;16.212;2023-04-24T08:57:37;0.43;;;0.43;;
15673;SDS011;7937;48.090;16.212;2023-04-24T09:00:41;0.30;;;0.30;;
15673;SDS011;7937;48.090;16.212;2023-04-24T09:03:49;2.23;;;0.40;;
15673;SDS011;7937;48.090;16.212;2023-04-24T09:06:53;1.43;;;0.30;;
15673;SDS011;7937;48.090;16.212;2023-04-24T09:09:58;0.93;;;0.40;;
15673;SDS011;7937;48.090;16.212;2023-04-24T09:13:01;3.40;;;0.60;;
15673;SDS011;7937;48.090;16.212;2023-04-24T09:16:03;0.37;;;0.30;;
15673;SDS011;7937;48.090;16.212;2023-04-24T09:19:06;0.40;;;0.40;;
15673;SDS011;7937;48.090;16.212;2023-04-24T09:22:08;0.40;;;0.33;;
15673;SDS011;7937;48.090;16.212;2023-04-24T09:25:11;2.73;;;0.50;;
15673;SDS011;7937;48.090;16.212;2023-04-24T09:28:14;0.30;;;0.30;;
15673;SDS011;7937;48.090;16.212;2023-04-24T09:31:18;0.50;;;0.50;;
15673;SDS011;7937;48.090;16.212;2023-04-24T09:34:23;0.30;;;0.30;;
15673;SDS011;7937;48.090;16.212;2023-04-24T09:37:28;0.70;;;0.30;;
15673;SDS011;7937;48.090;16.212;2023-04-24T09:40:31;1.67;;;0.50;;
15673;SDS011;7937;48.090;16.212;2023-04-24T09:43:36;1.60;;;0.40;;
15673;SDS011;7937;48.090;16.212;2023-04-24T09:46:38;0.30;;;0.23;;
15673;SDS011;7937;48.090;16.212;2023-04-24T09:49:40;0.50;;;0.37;;
15673;SDS011;7937;48.090;16.212;2023-04-24T09:52:46;1.17;;;0.40;;
15673;SDS011;7937;48.090;16.212;2023-04-24T09:56:10;1.50;;;0.43;;
15673;SDS011;7937;48.090;16.212;2023-04-24T09:59:17;0.77;;;0.30;;
15673;SDS011;7937;48.090;16.212;2023-04-24T10:02:20;0.77;;;0.50;;
15673;SDS011;7937;48.090;16.212;2023-04-24T10:05:23;0.93;;;0.40;;
15673;SDS011;7937;48.090;16.212;2023-04-24T10:08:27;1.30;;;0.30;;
15673;SDS011;7937;48.090;16.212;2023-04-24T10:11:35;0.30;;;0.30;;
15673;SDS011;7937;48.090;16.212;2023-04-24T10:14:38;0.50;;;0.40;;
15673;SDS011;7937;48.090;16.212;2023-04-24T10:17:44;1.10;;;0.43;;
15673;SDS011;7937;48.090;16.212;2023-04-24T10:20:53;0.73;;;0.40;;
15673;SDS011;7937;48.090;16.212;2023-04-24T10:23:56;0.47;;;0.47;;
15673;SDS011;7937;48.090;16.212;2023-04-24T10:27:01;0.50;;;0.40;;
15673;SDS011;7937;48.090;16.212;2023-04-24T10:30:05;0.70;;;0.60;;
15673;SDS011;7937;48.090;16.212;2023-04-24T10:33:08;0.43;;;0.40;;
15673;SDS011;7937;48.090;16.212;2023-04-24T10:36:11;0.43;;;0.40;;
15673;SDS011;7937;48.090;16.212;2023-04-24T10:39:15;0.57;;;0.57;;
15673;SDS011;7937;48.090;16.212;2023-04-24T10:42:19;0.40;;;0.40;;
15673;SDS011;7937;48.090;16.212;2023-04-24T10:45:22;0.40;;;0.40;;
15673;SDS011;7937;48.090;16.212;2023-04-24T10:48:26;0.70;;;0.40;;
15673;SDS011;7937;48.090;16.212;2023-04-24T10:55:04;0.40;;;0.40;;
15673;SDS011;7937;48.090;16.212;2023-04-24T10:58:07;0.47;;;0.47;;
15673;SDS011;7937;48.090;16.212;2023-04-24T11:01:11;0.50;;;0.30;;
15673;SDS011;7937;48.090;16.212;2023-04-24T11:04:37;0.50;;;0.50;;
15673;SDS011;7937;48.090;16.212;2023-04-24T11:11:15;0.80;;;0.40;;
15673;SDS011;7937;48.090;16.212;2023-04-24T11:14:18;0.40;;;0.40;;
15673;SDS011;7937;48.090;16.212;2023-04-24T11:17:33;1.70;;;0.40;;
15673;SDS011;7937;48.090;16.212;2023-04-24T11:20:42;0.63;;;0.40;;
15673;SDS011;7937;48.090;16.212;2023-04-24T11:23:45;0.40;;;0.30;;
15673;SDS011;7937;48.090;16.212;2023-04-24T11:26:48;0.50;;;0.40;;
15673;SDS011;7937;48.090;16.212;2023-04-24T11:33:02;1.10;;;0.53;;
15673;SDS011;7937;48.090;16.212;2023-04-24T11:36:05;0.30;;;0.30;;
15673;SDS011;7937;48.090;16.212;2023-04-24T11:39:09;0.70;;;0.50;;
15673;SDS011;7937;48.090;16.212;2023-04-24T11:42:14;0.90;;;0.60;;
15673;SDS011;7937;48.090;16.212;2023-04-24T11:45:18;0.60;;;0.60;;
15673;SDS011;7937;48.090;16.212;2023-04-24T11:48:24;1.07;;;0.60;;
15673;SDS011;7937;48.090;16.212;2023-04-24T11:51:27;1.47;;;0.60;;
15673;SDS011;7937;48.090;16.212;2023-04-24T11:54:36;0.90;;;0.43;;
15673;SDS011;7937;48.090;16.212;2023-04-24T11:57:38;0.40;;;0.40;;
15673;SDS011;7937;48.090;16.212;2023-04-24T12:00:40;0.40;;;0.40;;
15673;SDS011;7937;48.090;16.212;2023-04-24T12:03:46;0.50;;;0.40;;
15673;SDS011;7937;48.090;16.212;2023-04-24T12:06:59;0.93;;;0.40;;
15673;SDS011;7937;48.090;16.212;2023-04-24T12:10:06;0.30;;;0.30;;
15673;SDS011;7937;48.090;16.212;2023-04-24T12:13:09;0.40;;;0.40;;
15673;SDS011;7937;48.090;16.212;2023-04-24T12:16:12;0.43;;;0.40;;
15673;SDS011;7937;48.090;16.212;2023-04-24T12:19:21;0.30;;;0.30;;
15673;SDS011;7937;48.090;16.212;2023-04-24T12:22:24;0.30;;;0.30;;
15673;SDS011;7937;48.090;16.212;2023-04-24T12:25:27;1.47;;;0.50;;
15673;SDS011;7937;48.090;16.212;2023-04-24T12:28:37;0.50;;;0.50;;
15673;SDS011;7937;48.090;16.212;2023-04-24T12:31:40;0.70;;;0.53;;
15673;SDS011;7937;48.090;16.212;2023-04-24T12:34:43;0.70;;;0.43;;
15673;SDS011;7937;48.090;16.212;2023-04-24T12:37:45;0.43;;;0.40;;
15673;SDS011;7937;48.090;16.212;2023-04-24T12:41:00;0.60;;;0.57;;
15673;SDS011;7937;48.090;16.212;2023-04-24T12:44:10;0.30;;;0.30;;
15673;SDS011;7937;48.090;16.212;2023-04-24T12:47:12;0.33;;;0.33;;
15673;SDS011;7937;48.090;16.212;2023-04-24T12:50:15;0.40;;;0.40;;
15673;SDS011;7937;48.090;16.212;2023-04-24T12:53:17;1.50;;;0.30;;
15673;SDS011;7937;48.090;16.212;2023-04-24T12:56:20;2.23;;;0.60;;
15673;SDS011;7937;48.090;16.212;2023-04-24T12:59:22;0.37;;;0.37;;
15673;SDS011;7937;48.090;16.212;2023-04-24T13:02:24;0.43;;;0.30;;
15673;SDS011;7937;48.090;16.212;2023-04-24T13:05:28;0.33;;;0.33;;
15673;SDS011;7937;48.090;16.212;2023-04-24T13:08:31;0.40;;;0.40;;
15673;SDS011;7937;48.090;16.212;2023-04-24T13:11:33;0.77;;;0.40;;
15673;SDS011;7937;48.090;16.212;2023-04-24T13:14:36;1.23;;;0.43;;
15673;SDS011;7937;48.090;16.212;2023-04-24T13:17:39;0.50;;;0.40;;
15673;SDS011;7937;48.090;16.212;2023-04-24T13:20:41;0.30;;;0.30;;
15673;SDS011;7937;48.090;16.212;2023-04-24T13:23:43;0.83;;;0.33;;
15673;SDS011;7937;48.090;16.212;2023-04-24T13:26:46;0.20;;;0.20;;
15673;SDS011;7937;48.090;16.212;2023-04-24T13:29:48;1.27;;;0.43;;
15673;SDS011;7937;48.090;16.212;2023-04-24T13:32:50;0.30;;;0.30;;
15673;SDS011;7937;48.090;16.212;2023-04-24T13:35:52;0.20;;;0.20;;
15673;SDS011;7937;48.090;16.212;2023-04-24T13:38:54;0.70;;;0.40;;
15673;SDS011;7937;48.090;16.212;2023-04-24T13:41:56;1.17;;;0.43;;
15673;SDS011;7937;48.090;16.212;2023-04-24T13:44:58;0.57;;;0.40;;
15673;SDS011;7937;48.090;16.212;2023-04-24T13:48:04;0.60;;;0.40;;
15673;SDS011;7937;48.090;16.212;2023-04-24T13:51:06;0.40;;;0.30;;
15673;SDS011;7937;48.090;16.212;2023-04-24T13:54:08;0.43;;;0.43;;
15673;SDS011;7937;48.090;16.212;2023-04-24T13:57:10;0.67;;;0.30;;
15673;SDS011;7937;48.090;16.212;2023-04-24T14:00:13;0.83;;;0.40;;
15673;SDS011;7937;48.090;16.212;2023-04-24T14:03:15;1.43;;;0.57;;
15673;SDS011;7937;48.090;16.212;2023-04-24T14:06:18;0.80;;;0.40;;
15673;SDS011;7937;48.090;16.212;2023-04-24T14:09:21;1.77;;;0.40;;
15673;SDS011;7937;48.090;16.212;2023-04-24T14:12:24;1.27;;;0.63;;
15673;SDS011;7937;48.090;16.212;2023-04-24T14:15:27;0.40;;;0.40;;
15673;SDS011;7937;48.090;16.212;2023-04-24T14:18:29;0.90;;;0.70;;
15673;SDS011;7937;48.090;16.212;2023-04-24T14:21:32;0.30;;;0.30;;
15673;SDS011;7937;48.090;16.212;2023-04-24T14:24:34;0.87;;;0.50;;
15673;SDS011;7937;48.090;16.212;2023-04-24T14:27:36;0.70;;;0.40;;
15673;SDS011;7937;48.090;16.212;2023-04-24T14:30:38;1.07;;;0.40;;
15673;SDS011;7937;48.090;16.212;2023-04-24T14:33:42;1.43;;;0.40;;
15673;SDS011;7937;48.090;16.212;2023-04-24T14:36:44;1.00;;;0.43;;
15673;SDS011;7937;48.090;16.212;2023-04-24T14:39:47;0.50;;;0.50;;
15673;SDS011;7937;48.090;16.212;2023-04-24T14:43:01;0.60;;;0.60;;
15673;SDS011;7937;48.090;16.212;2023-04-24T14:46:03;0.40;;;0.40;;
15673;SDS011;7937;48.090;16.212;2023-04-24T14:49:08;0.50;;;0.50;;
15673;SDS011;7937;48.090;16.212;2023-04-24T14:52:11;0.70;;;0.60;;
15673;SDS011;7937;48.090;16.212;2023-04-24T14:55:13;0.63;;;0.50;;
15673;SDS011;7937;48.090;16.212;2023-04-24T14:58:16;2.83;;;0.93;;
15673;SDS011;7937;48.090;16.212;2023-04-24T15:01:18;1.80;;;0.70;;
15673;SDS011;7937;48.090;16.212;2023-04-24T15:04:20;1.90;;;0.50;;
15673;SDS011;7937;48.090;16.212;2023-04-24T15:07:23;1.13;;;0.70;;
15673;SDS011;7937;48.090;16.212;2023-04-24T15:10:26;2.20;;;0.60;;
15673;SDS011;7937;48.090;16.212;2023-04-24T15:13:28;5.53;;;1.13;;
15673;SDS011;7937;48.090;16.212;2023-04-24T15:16:30;2.60;;;0.80;;
15673;SDS011;7937;48.090;16.212;2023-04-24T15:19:33;4.50;;;0.80;;
15673;SDS011;7937;48.090;16.212;2023-04-24T15:22:36;1.70;;;0.70;;
15673;SDS011;7937;48.090;16.212;2023-04-24T15:25:38;1.00;;;0.70;;
15673;SDS011;7937;48.090;16.212;2023-04-24T15:28:40;3.13;;;1.00;;
15673;SDS011;7937;48.090;16.212;2023-04-24T15:31:42;0.70;;;0.57;;
15673;SDS011;7937;48.090;16.212;2023-04-24T15:34:44;2.10;;;0.70;;
15673;SDS011;7937;48.090;16.212;2023-04-24T15:37:49;1.40;;;0.40;;
15673;SDS011;7937;48.090;16.212;2023-04-24T15:40:51;1.47;;;0.50;;
15673;SDS011;7937;48.090;16.212;2023-04-24T15:43:53;0.63;;;0.53;;
15673;SDS011;7937;48.090;16.212;2023-04-24T15:46:56;3.97;;;0.67;;
15673;SDS011;7937;48.090;16.212;2023-04-24T15:49:58;5.33;;;0.53;;
15673;SDS011;7937;48.090;16.212;2023-04-24T15:53:02;1.80;;;1.13;;
15673;SDS011;7937;48.090;16.212;2023-04-24T15:56:04;1.37;;;0.70;;
15673;SDS011;7937;48.090;16.212;2023-04-24T15:59:06;0.80;;;0.57;;
15673;SDS011;7937;48.090;16.212;2023-04-24T16:02:12;1.03;;;0.50;;
15673;SDS011;7937;48.090;16.212;2023-04-24T16:05:22;0.63;;;0.63;;
15673;SDS011;7937;48.090;16.212;2023-04-24T16:08:25;1.30;;;0.53;;
15673;SDS011;7937;48.090;16.212;2023-04-24T16:11:27;2.10;;;0.60;;
15673;SDS011;7937;48.090;16.212;2023-04-24T16:14:29;1.07;;;0.60;;
15673;SDS011;7937;48.090;16.212;2023-04-24T16:17:32;0.97;;;0.70;;
15673;SDS011;7937;48.090;16.212;2023-04-24T16:20:34;5.53;;;0.60;;
15673;SDS011;7937;48.090;16.212;2023-04-24T16:23:36;2.97;;;0.80;;
15673;SDS011;7937;48.090;16.212;2023-04-24T16:26:39;2.83;;;0.90;;
15673;SDS011;7937;48.090;16.212;2023-04-24T16:29:41;0.83;;;0.50;;
15673;SDS011;7937;48.090;16.212;2023-04-24T16:32:44;1.00;;;0.77;;
15673;SDS011;7937;48.090;16.212;2023-04-24T16:35:46;2.00;;;0.77;;
15673;SDS011;7937;48.090;16.212;2023-04-24T16:38:48;0.70;;;0.70;;
15673;SDS011;7937;48.090;16.212;2023-04-24T16:41:51;0.60;;;0.60;;
15673;SDS011;7937;48.090;16.212;2023-04-24T16:44:55;2.50;;;1.07;;
15673;SDS011;7937;48.090;16.212;2023-04-24T16:47:57;0.80;;;0.80;;
15673;SDS011;7937;48.090;16.212;2023-04-24T16:51:01;1.03;;;0.80;;
15673;SDS011;7937;48.090;16.212;2023-04-24T16:54:07;1.57;;;0.90;;
15673;SDS011;7937;48.090;16.212;2023-04-24T16:57:11;2.73;;;1.10;;
15673;SDS011;7937;48.090;16.212;2023-04-24T17:00:17;1.33;;;0.77;;
15673;SDS011;7937;48.090;16.212;2023-04-24T17:03:19;2.60;;;1.00;;
15673;SDS011;7937;48.090;16.212;2023-04-24T17:06:22;1.33;;;1.20;;
15673;SDS011;7937;48.090;16.212;2023-04-24T17:09:25;2.30;;;1.20;;
15673;SDS011;7937;48.090;16.212;2023-04-24T17:12:27;1.80;;;1.27;;
15673;SDS011;7937;48.090;16.212;2023-04-24T17:15:29;1.87;;;1.40;;
15673;SDS011;7937;48.090;16.212;2023-04-24T17:18:32;1.63;;;1.00;;
15673;SDS011;7937;48.090;16.212;2023-04-24T17:21:38;2.13;;;1.30;;
15673;SDS011;7937;48.090;16.212;2023-04-24T17:24:42;1.60;;;1.50;;
15673;SDS011;7937;48.090;16.212;2023-04-24T17:27:44;1.90;;;1.70;;
15673;SDS011;7937;48.090;16.212;2023-04-24T17:30:47;2.07;;;1.50;;
15673;SDS011;7937;48.090;16.212;2023-04-24T17:33:50;3.27;;;1.80;;
15673;SDS011;7937;48.090;16.212;2023-04-24T17:36:53;1.87;;;1.60;;
15673;SDS011;7937;48.090;16.212;2023-04-24T17:39:55;3.37;;;1.93;;
15673;SDS011;7937;48.090;16.212;2023-04-24T17:42:58;2.37;;;1.87;;
15673;SDS011;7937;48.090;16.212;2023-04-24T17:46:01;3.07;;;1.77;;
15673;SDS011;7937;48.090;16.212;2023-04-24T17:49:07;3.00;;;1.47;;
15673;SDS011;7937;48.090;16.212;2023-04-24T17:52:09;1.70;;;1.60;;
15673;SDS011;7937;48.090;16.212;2023-04-24T17:55:13;2.03;;;1.70;;
15673;SDS011;7937;48.090;16.212;2023-04-24T17:58:17;2.33;;;1.50;;
15673;SDS011;7937;48.090;16.212;2023-04-24T18:01:19;1.53;;;1.33;;
15673;SDS011;7937;48.090;16.212;2023-04-24T18:04:25;1.30;;;1.17;;
15673;SDS011;7937;48.090;16.212;2023-04-24T18:07:28;1.60;;;1.50;;
15673;SDS011;7937;48.090;16.212;2023-04-24T18:10:32;1.40;;;1.30;;
15673;SDS011;7937;48.090;16.212;2023-04-24T18:13:38;1.40;;;1.20;;
15673;SDS011;7937;48.090;16.212;2023-04-24T18:16:43;1.27;;;1.10;;
15673;SDS011;7937;48.090;16.212;2023-04-24T18:19:46;1.30;;;1.20;;
15673;SDS011;7937;48.090;16.212;2023-04-24T18:22:48;3.67;;;1.00;;
15673;SDS011;7937;48.090;16.212;2023-04-24T18:25:51;0.80;;;0.80;;
15673;SDS011;7937;48.090;16.212;2023-04-24T18:28:54;1.13;;;0.90;;
15673;SDS011;7937;48.090;16.212;2023-04-24T18:31:56;1.77;;;1.00;;
15673;SDS011;7937;48.090;16.212;2023-04-24T18:34:59;1.30;;;1.20;;
15673;SDS011;7937;48.090;16.212;2023-04-24T18:38:02;2.30;;;1.07;;
15673;SDS011;7937;48.090;16.212;2023-04-24T18:41:05;3.17;;;1.00;;